createdAt,value
2019-03-30T00:01:42.540Z,99.90
2019-03-30T00:04:16.191Z,99.90
2019-03-30T00:06:49.574Z,99.90
2019-03-30T00:09:23.094Z,99.90
2019-03-30T00:11:57.930Z,99.90
2019-03-30T00:14:31.611Z,99.90
2019-03-30T00:17:05.070Z,99.90
2019-03-30T00:19:39.206Z,99.90
2019-03-30T00:22:14.131Z,99.90
2019-03-30T00:24:48.015Z,99.90
2019-03-30T00:27:21.590Z,99.90
2019-03-30T00:29:56.129Z,99.90
2019-03-30T00:32:29.769Z,99.90
2019-03-30T00:35:03.690Z,99.90
2019-03-30T00:37:37.054Z,99.90
2019-03-30T00:40:10.708Z,99.90
2019-03-30T00:42:44.155Z,99.90
2019-03-30T00:45:17.873Z,99.90
2019-03-30T00:47:51.361Z,99.90
2019-03-30T00:50:25.962Z,99.90
2019-03-30T00:52:59.545Z,99.90
2019-03-30T00:55:33.134Z,99.90
2019-03-30T00:58:06.495Z,99.90
2019-03-30T01:00:40.011Z,99.90
2019-03-30T01:03:13.569Z,99.90
2019-03-30T01:05:47.230Z,99.90
2019-03-30T01:08:40.351Z,99.90
2019-03-30T01:11:13.955Z,99.90
2019-03-30T01:13:47.411Z,99.90
2019-03-30T01:16:20.931Z,99.90
2019-03-30T01:18:55.331Z,99.80
2019-03-30T01:21:28.840Z,99.50
2019-03-30T01:24:02.182Z,99.40
2019-03-30T01:26:35.624Z,99.30
2019-03-30T01:29:09.124Z,99.30
2019-03-30T01:31:42.701Z,99.30
2019-03-30T01:34:16.333Z,99.20
2019-03-30T01:36:49.813Z,99.00
2019-03-30T01:39:23.379Z,98.90
2019-03-30T01:41:56.974Z,98.90
2019-03-30T01:44:30.289Z,98.90
2019-03-30T01:47:03.915Z,98.90
2019-03-30T01:49:37.536Z,98.90
2019-03-30T01:52:11.080Z,99.00
2019-03-30T01:54:44.660Z,98.90
2019-03-30T01:57:18.296Z,98.80
2019-03-30T01:59:51.856Z,98.90
2019-03-30T02:02:25.510Z,98.80
2019-03-30T02:04:59.140Z,98.90
2019-03-30T02:07:32.841Z,98.90
2019-03-30T02:10:07.305Z,98.80
2019-03-30T02:12:41.435Z,98.90
2019-03-30T02:15:16.376Z,98.90
2019-03-30T02:17:50.144Z,98.90
2019-03-30T02:20:36.581Z,99.00
2019-03-30T02:23:10.135Z,99.10
2019-03-30T02:25:43.774Z,99.30
2019-03-30T02:28:17.306Z,99.50
2019-03-30T02:30:50.786Z,99.50
2019-03-30T02:33:24.592Z,99.40
2019-03-30T02:35:57.925Z,99.60
2019-03-30T02:38:32.010Z,99.60
2019-03-30T02:41:05.340Z,99.60
2019-03-30T02:43:39.827Z,99.80
2019-03-30T02:46:13.477Z,99.90
2019-03-30T02:48:47.050Z,99.90
2019-03-30T02:51:20.568Z,99.90
2019-03-30T02:53:54.271Z,99.90
2019-03-30T02:56:27.862Z,99.90
2019-03-30T02:59:01.484Z,99.90
2019-03-30T03:01:34.918Z,99.90
2019-03-30T03:04:08.747Z,99.90
2019-03-30T03:06:42.222Z,99.90
2019-03-30T03:09:16.084Z,99.90
2019-03-30T03:11:49.534Z,99.90
2019-03-30T03:14:23.086Z,99.90
2019-03-30T03:16:56.508Z,99.90
2019-03-30T03:19:29.859Z,99.90
2019-03-30T03:22:03.402Z,99.90
2019-03-30T03:24:36.803Z,99.90
2019-03-30T03:27:10.186Z,99.90
2019-03-30T03:29:44.294Z,99.90
2019-03-30T03:32:18.228Z,99.90
2019-03-30T03:34:52.106Z,99.90
2019-03-30T03:37:43.183Z,99.90
2019-03-30T03:40:01.286Z,99.90
2019-03-30T03:42:34.774Z,99.90
2019-03-30T03:45:08.366Z,99.90
2019-03-30T03:47:41.848Z,99.90
2019-03-30T03:50:41.517Z,99.90
2019-03-30T03:53:15.959Z,99.90
2019-03-30T03:55:50.557Z,99.90
2019-03-30T03:58:27.659Z,99.90
2019-03-30T04:01:02.696Z,99.90
2019-03-30T04:03:36.733Z,99.90
2019-03-30T04:06:10.817Z,99.90
2019-03-30T04:08:46.933Z,99.90
2019-03-30T04:11:22.562Z,99.90
2019-03-30T04:13:58.534Z,99.90
2019-03-30T04:16:32.120Z,99.90
2019-03-30T04:19:05.708Z,99.90
2019-03-30T04:21:44.394Z,99.90
2019-03-30T04:24:14.494Z,99.90
2019-03-30T04:26:47.958Z,99.90
2019-03-30T04:29:21.564Z,99.90
2019-03-30T04:31:54.988Z,99.90
2019-03-30T04:34:28.406Z,99.90
2019-03-30T04:37:01.924Z,99.90
2019-03-30T04:39:35.580Z,99.90
2019-03-30T04:42:09.083Z,99.90
2019-03-30T04:44:42.468Z,99.90
2019-03-30T04:47:15.845Z,99.90
2019-03-30T04:49:49.316Z,99.90
2019-03-30T04:52:22.765Z,99.90
2019-03-30T04:54:56.303Z,99.90
2019-03-30T04:57:29.708Z,99.90
2019-03-30T05:00:03.512Z,99.90
2019-03-30T05:02:38.025Z,99.90
2019-03-30T05:05:11.478Z,99.90
2019-03-30T05:07:44.864Z,99.90
2019-03-30T05:10:19.111Z,99.90
2019-03-30T05:12:52.564Z,99.90
2019-03-30T05:15:25.953Z,99.90
2019-03-30T05:17:59.385Z,99.90
2019-03-30T05:20:32.771Z,99.90
2019-03-30T05:23:06.442Z,99.90
2019-03-30T05:25:39.898Z,99.90
2019-03-30T05:28:13.389Z,99.90
2019-03-30T05:30:47.096Z,99.90
2019-03-30T05:33:20.638Z,99.90
2019-03-30T05:35:54.427Z,99.90
2019-03-30T05:38:28.090Z,99.90
2019-03-30T05:41:01.533Z,99.90
2019-03-30T05:43:35.270Z,99.90
2019-03-30T05:46:08.715Z,99.90
2019-03-30T05:48:43.473Z,99.90
2019-03-30T05:51:17.057Z,99.90
2019-03-30T05:53:50.811Z,99.80
2019-03-30T05:56:24.218Z,99.80
2019-03-30T05:58:57.625Z,99.70
2019-03-30T06:01:31.302Z,99.60
2019-03-30T06:04:04.926Z,99.10
2019-03-30T06:06:38.463Z,98.90
2019-03-30T06:09:11.851Z,98.90
2019-03-30T06:11:45.428Z,98.70
2019-03-30T06:14:19.008Z,98.70
2019-03-30T06:16:52.741Z,98.60
2019-03-30T06:19:26.165Z,98.70
2019-03-30T06:21:59.948Z,98.60
2019-03-30T06:24:33.438Z,98.50
2019-03-30T06:27:08.225Z,98.50
2019-03-30T06:29:41.745Z,98.40
2019-03-30T06:32:15.226Z,98.40
2019-03-30T06:34:48.900Z,98.50
2019-03-30T06:37:22.643Z,98.40
2019-03-30T06:39:56.095Z,98.00
2019-03-30T06:42:29.664Z,97.70
2019-03-30T06:45:03.023Z,97.10
2019-03-30T06:47:36.635Z,96.70
2019-03-30T06:50:10.648Z,96.30
2019-03-30T06:52:56.801Z,96.10
2019-03-30T06:55:19.636Z,95.70
2019-03-30T06:57:53.415Z,95.60
2019-03-30T07:00:34.291Z,95.50
2019-03-30T07:03:07.890Z,95.20
2019-03-30T07:05:42.793Z,95.00
2019-03-30T07:08:16.591Z,95.00
2019-03-30T07:10:50.123Z,95.20
2019-03-30T07:13:25.157Z,94.50
2019-03-30T07:16:00.495Z,94.50
2019-03-30T07:18:35.651Z,94.30
2019-03-30T07:21:09.009Z,94.20
2019-03-30T07:23:42.414Z,94.00
2019-03-30T07:26:16.138Z,93.80
2019-03-30T07:28:49.732Z,93.60
2019-03-30T07:31:23.145Z,93.40
2019-03-30T07:33:57.089Z,92.90
2019-03-30T07:36:31.092Z,92.50
2019-03-30T07:39:05.318Z,92.00
2019-03-30T07:41:38.845Z,91.50
2019-03-30T07:44:12.265Z,91.50
2019-03-30T07:46:46.241Z,90.70
2019-03-30T07:49:19.676Z,90.80
2019-03-30T07:51:53.220Z,90.80
2019-03-30T07:54:26.822Z,90.80
2019-03-30T07:57:07.444Z,90.60
2019-03-30T07:59:35.997Z,90.40
2019-03-30T08:02:09.716Z,90.10
2019-03-30T08:04:43.168Z,90.00
2019-03-30T08:07:16.886Z,89.50
2019-03-30T08:09:50.470Z,88.60
2019-03-30T08:12:24.879Z,88.60
2019-03-30T08:14:58.296Z,87.70
2019-03-30T08:17:31.706Z,88.40
2019-03-30T08:20:06.350Z,87.60
2019-03-30T08:22:39.867Z,87.60
2019-03-30T08:25:13.566Z,86.90
2019-03-30T08:27:47.024Z,86.20
2019-03-30T08:30:20.865Z,86.10
2019-03-30T08:32:54.400Z,86.10
2019-03-30T08:35:28.021Z,84.90
2019-03-30T08:38:01.531Z,83.90
2019-03-30T08:40:35.202Z,83.40
2019-03-30T08:43:08.631Z,83.60
2019-03-30T08:45:42.415Z,83.00
2019-03-30T08:48:15.931Z,82.20
2019-03-30T08:50:49.580Z,82.40
2019-03-30T08:53:23.090Z,81.70
2019-03-30T08:55:57.236Z,81.70
2019-03-30T08:58:30.826Z,80.40
2019-03-30T09:01:04.512Z,79.50
2019-03-30T09:03:38.283Z,78.10
2019-03-30T09:06:11.788Z,78.20
2019-03-30T09:08:45.431Z,77.70
2019-03-30T09:11:18.871Z,76.50
2019-03-30T09:13:52.552Z,74.50
2019-03-30T09:16:26.081Z,72.40
2019-03-30T09:18:59.704Z,72.50
2019-03-30T09:21:33.405Z,72.50
2019-03-30T09:24:09.810Z,70.20
2019-03-30T09:26:42.286Z,71.30
2019-03-30T09:29:15.663Z,70.10
2019-03-30T09:31:49.378Z,70.20
2019-03-30T09:34:23.448Z,70.10
2019-03-30T09:36:56.967Z,69.10
2019-03-30T09:39:30.559Z,65.70
2019-03-30T09:42:03.987Z,65.30
2019-03-30T09:44:37.368Z,64.90
2019-03-30T09:47:10.910Z,63.00
2019-03-30T09:49:44.383Z,63.10
2019-03-30T09:52:18.229Z,63.70
2019-03-30T09:54:51.898Z,63.50
2019-03-30T09:57:25.468Z,64.10
2019-03-30T09:59:58.981Z,62.10
2019-03-30T10:02:32.578Z,61.40
2019-03-30T10:05:06.275Z,63.20
2019-03-30T10:07:39.718Z,63.40
2019-03-30T10:10:13.933Z,61.60
2019-03-30T10:12:47.568Z,61.50
2019-03-30T10:15:21.156Z,60.30
2019-03-30T10:17:54.757Z,60.00
2019-03-30T10:20:28.288Z,59.40
2019-03-30T10:23:01.919Z,59.50
2019-03-30T10:25:35.622Z,59.30
2019-03-30T10:28:09.182Z,59.20
2019-03-30T10:30:42.696Z,60.50
2019-03-30T10:33:16.249Z,59.50
2019-03-30T10:35:50.404Z,56.90
2019-03-30T10:38:25.021Z,54.20
2019-03-30T10:40:58.397Z,53.70
2019-03-30T10:43:31.893Z,54.00
2019-03-30T10:46:05.487Z,53.20
2019-03-30T10:48:38.892Z,52.80
2019-03-30T10:51:12.718Z,51.60
2019-03-30T10:53:46.253Z,50.70
2019-03-30T10:56:19.769Z,51.00
2019-03-30T10:58:53.257Z,51.20
2019-03-30T11:01:27.855Z,51.80
2019-03-30T11:04:01.604Z,50.30
2019-03-30T11:06:35.278Z,50.80
2019-03-30T11:09:08.857Z,53.90
2019-03-30T11:11:42.504Z,53.70
2019-03-30T11:14:16.009Z,51.30
2019-03-30T11:16:49.833Z,51.00
2019-03-30T11:19:23.298Z,50.80
2019-03-30T11:21:56.977Z,50.70
2019-03-30T11:24:30.412Z,50.50
2019-03-30T11:27:04.182Z,49.90
2019-03-30T11:29:37.824Z,49.40
2019-03-30T11:32:11.358Z,50.90
2019-03-30T11:34:44.957Z,48.70
2019-03-30T11:37:18.712Z,47.40
2019-03-30T11:39:52.277Z,48.00
2019-03-30T11:42:25.939Z,48.90
2019-03-30T11:44:59.427Z,49.50
2019-03-30T11:47:33.052Z,49.30
2019-03-30T11:50:07.019Z,49.50
2019-03-30T11:52:40.537Z,49.40
2019-03-30T11:55:21.577Z,47.90
2019-03-30T11:57:49.808Z,49.70
2019-03-30T12:00:23.354Z,49.30
2019-03-30T12:02:56.818Z,50.00
2019-03-30T12:05:30.683Z,48.80
2019-03-30T12:08:04.218Z,49.40
2019-03-30T12:10:37.979Z,51.60
2019-03-30T12:13:11.533Z,52.00
2019-03-30T12:15:45.134Z,53.00
2019-03-30T12:18:18.792Z,51.20
2019-03-30T12:20:52.373Z,49.60
2019-03-30T12:23:25.818Z,48.20
2019-03-30T12:26:01.860Z,46.20
2019-03-30T12:28:37.020Z,47.30
2019-03-30T12:31:10.593Z,45.00
2019-03-30T12:33:44.003Z,45.30
2019-03-30T12:36:17.325Z,45.80
2019-03-30T12:38:51.049Z,43.90
2019-03-30T12:41:36.540Z,44.70
2019-03-30T12:44:09.971Z,46.00
2019-03-30T12:46:43.339Z,47.00
2019-03-30T12:49:16.760Z,47.50
2019-03-30T12:51:50.250Z,45.80
2019-03-30T12:54:23.925Z,44.40
2019-03-30T12:56:57.391Z,44.30
2019-03-30T12:59:30.796Z,46.10
2019-03-30T13:02:04.179Z,42.20
2019-03-30T13:04:37.684Z,41.40
2019-03-30T13:07:11.226Z,42.60
2019-03-30T13:09:44.912Z,43.00
2019-03-30T13:12:18.302Z,44.10
2019-03-30T13:14:52.252Z,43.20
2019-03-30T13:17:25.711Z,42.10
2019-03-30T13:19:59.311Z,41.90
2019-03-30T13:22:32.796Z,42.00
2019-03-30T13:25:06.531Z,43.30
2019-03-30T13:27:40.001Z,42.60
2019-03-30T13:30:13.847Z,39.70
2019-03-30T13:32:47.496Z,39.50
2019-03-30T13:35:22.042Z,40.80
2019-03-30T13:37:55.631Z,40.00
2019-03-30T13:40:29.276Z,41.00
2019-03-30T13:43:02.781Z,42.70
2019-03-30T13:45:36.341Z,43.10
2019-03-30T13:48:09.730Z,43.10
2019-03-30T13:50:43.349Z,42.50
2019-03-30T13:53:16.916Z,39.00
2019-03-30T13:55:50.405Z,40.40
2019-03-30T13:58:23.773Z,42.70
2019-03-30T14:00:57.508Z,42.10
2019-03-30T14:03:31.351Z,40.00
2019-03-30T14:06:04.876Z,39.50
2019-03-30T14:08:38.415Z,39.40
2019-03-30T14:11:11.981Z,40.20
2019-03-30T14:13:45.722Z,39.40
2019-03-30T14:16:19.136Z,38.90
2019-03-30T14:18:52.611Z,37.10
2019-03-30T14:21:26.146Z,37.20
2019-03-30T14:23:59.544Z,37.20
2019-03-30T14:26:33.292Z,37.70
2019-03-30T14:29:06.906Z,37.10
2019-03-30T14:31:40.528Z,36.80
2019-03-30T14:34:14.095Z,37.20
2019-03-30T14:36:48.023Z,40.40
2019-03-30T14:39:21.677Z,39.90
2019-03-30T14:41:55.171Z,38.70
2019-03-30T14:44:29.155Z,36.40
2019-03-30T14:47:03.454Z,38.60
2019-03-30T14:49:37.017Z,38.20
2019-03-30T14:52:10.748Z,39.40
2019-03-30T14:54:52.753Z,38.70
2019-03-30T14:57:19.954Z,37.60
2019-03-30T14:59:53.627Z,37.60
2019-03-30T15:02:27.194Z,37.90
2019-03-30T15:05:01.186Z,37.50
2019-03-30T15:07:35.093Z,36.60
2019-03-30T15:10:09.524Z,37.00
2019-03-30T15:12:43.143Z,38.70
2019-03-30T15:15:16.603Z,39.50
2019-03-30T15:17:50.455Z,41.80
2019-03-30T15:20:23.887Z,40.20
2019-03-30T15:22:57.602Z,39.80
2019-03-30T15:25:31.056Z,40.90
2019-03-30T15:28:04.842Z,38.10
2019-03-30T15:30:39.403Z,38.70
2019-03-30T15:33:12.902Z,37.60
2019-03-30T15:35:46.613Z,35.80
2019-03-30T15:38:22.749Z,36.70
2019-03-30T15:40:55.898Z,39.80
2019-03-30T15:43:38.024Z,40.00
2019-03-30T15:46:05.220Z,40.90
2019-03-30T15:48:38.672Z,42.40
2019-03-30T15:51:12.199Z,43.40
2019-03-30T15:53:45.788Z,43.60
2019-03-30T15:56:19.277Z,44.00
2019-03-30T15:58:52.762Z,43.50
2019-03-30T16:01:26.283Z,43.60
2019-03-30T16:04:02.373Z,41.60
2019-03-30T16:06:35.142Z,43.40
2019-03-30T16:09:08.648Z,43.90
2019-03-30T16:11:42.327Z,43.50
2019-03-30T16:14:15.912Z,43.80
2019-03-30T16:16:49.391Z,42.20
2019-03-30T16:19:23.074Z,41.40
2019-03-30T16:21:56.908Z,43.20
2019-03-30T16:24:30.548Z,41.90
2019-03-30T16:27:04.093Z,45.70
2019-03-30T16:29:37.683Z,46.80
2019-03-30T16:32:11.278Z,46.20
2019-03-30T16:34:44.768Z,47.80
2019-03-30T16:37:18.420Z,48.90
2019-03-30T16:39:51.783Z,49.40
2019-03-30T16:42:25.505Z,51.20
2019-03-30T16:44:59.099Z,50.90
2019-03-30T16:47:32.544Z,52.00
2019-03-30T16:50:07.113Z,53.00
2019-03-30T16:52:41.105Z,54.30
2019-03-30T16:55:15.198Z,54.00
2019-03-30T16:57:48.732Z,55.40
2019-03-30T17:00:22.367Z,55.70
2019-03-30T17:02:56.002Z,56.50
2019-03-30T17:05:29.622Z,56.50
2019-03-30T17:08:03.058Z,56.40
2019-03-30T17:10:40.128Z,56.60
2019-03-30T17:13:12.342Z,56.70
2019-03-30T17:15:45.997Z,56.80
2019-03-30T17:18:19.555Z,57.20
2019-03-30T17:20:53.569Z,58.20
2019-03-30T17:23:27.154Z,59.10
2019-03-30T17:26:00.594Z,59.00
2019-03-30T17:28:34.103Z,59.60
2019-03-30T17:31:07.665Z,60.10
2019-03-30T17:33:41.124Z,60.90
2019-03-30T17:36:14.875Z,60.70
2019-03-30T17:38:48.388Z,62.20
2019-03-30T17:41:22.278Z,62.60
2019-03-30T17:43:55.843Z,62.10
2019-03-30T17:46:29.734Z,63.10
2019-03-30T17:49:03.416Z,63.30
2019-03-30T17:51:36.961Z,64.80
2019-03-30T17:54:10.617Z,65.30
2019-03-30T17:56:43.983Z,65.10
2019-03-30T17:59:17.603Z,67.20
2019-03-30T18:01:51.013Z,67.50
2019-03-30T18:04:24.530Z,67.20
2019-03-30T18:06:59.239Z,68.20
2019-03-30T18:09:32.639Z,68.40
2019-03-30T18:12:06.371Z,69.20
2019-03-30T18:14:39.927Z,68.90
2019-03-30T18:17:13.630Z,70.30
2019-03-30T18:19:47.070Z,70.60
2019-03-30T18:22:20.916Z,71.80
2019-03-30T18:24:54.549Z,72.70
2019-03-30T18:27:28.053Z,73.10
2019-03-30T18:30:01.754Z,73.60
2019-03-30T18:32:35.149Z,73.30
2019-03-30T18:35:08.779Z,73.90
2019-03-30T18:37:42.721Z,74.80
2019-03-30T18:40:27.614Z,76.20
2019-03-30T18:43:02.291Z,76.30
2019-03-30T18:45:39.546Z,76.40
2019-03-30T18:48:14.471Z,77.70
2019-03-30T18:50:48.264Z,78.30
2019-03-30T18:53:21.934Z,78.30
2019-03-30T18:55:55.715Z,79.70
2019-03-30T18:58:41.134Z,80.00
2019-03-30T19:01:04.517Z,80.60
2019-03-30T19:03:38.144Z,80.70
2019-03-30T19:06:11.561Z,81.40
2019-03-30T19:08:45.117Z,82.50
2019-03-30T19:11:18.835Z,82.20
2019-03-30T19:13:52.256Z,83.20
2019-03-30T19:16:25.910Z,83.90
2019-03-30T19:18:59.592Z,85.10
2019-03-30T19:21:33.194Z,85.40
2019-03-30T19:24:06.739Z,84.90
2019-03-30T19:26:40.531Z,87.20
2019-03-30T19:29:14.011Z,87.40
2019-03-30T19:31:47.593Z,88.00
2019-03-30T19:34:21.124Z,89.00
2019-03-30T19:36:54.828Z,89.40
2019-03-30T19:39:28.576Z,89.70
2019-03-30T19:42:02.102Z,90.40
2019-03-30T19:44:35.624Z,90.40
2019-03-30T19:47:09.172Z,90.80
2019-03-30T19:49:42.695Z,91.10
2019-03-30T19:52:16.456Z,91.00
2019-03-30T19:54:50.175Z,91.10
2019-03-30T19:57:27.365Z,91.10
2019-03-30T19:59:59.325Z,91.20
2019-03-30T20:02:32.862Z,91.20
2019-03-30T20:05:06.931Z,91.60
2019-03-30T20:07:40.785Z,91.90
2019-03-30T20:10:15.135Z,92.10
2019-03-30T20:12:48.989Z,92.00
2019-03-30T20:15:22.413Z,92.00
2019-03-30T20:17:55.926Z,92.00
2019-03-30T20:20:29.536Z,92.10
2019-03-30T20:23:03.271Z,92.20
2019-03-30T20:25:36.790Z,92.40
2019-03-30T20:28:10.495Z,92.70
2019-03-30T20:30:43.995Z,92.70
2019-03-30T20:33:17.773Z,92.70
2019-03-30T20:35:51.258Z,92.50
2019-03-30T20:38:24.920Z,92.50
2019-03-30T20:40:58.352Z,92.70
2019-03-30T20:43:33.204Z,92.50
2019-03-30T20:46:07.763Z,92.90
2019-03-30T20:48:41.238Z,93.00
2019-03-30T20:51:14.785Z,93.10
2019-03-30T20:53:48.419Z,93.10
2019-03-30T20:56:22.057Z,93.20
2019-03-30T20:58:55.633Z,93.30
2019-03-30T21:01:30.106Z,93.60
2019-03-30T21:04:04.667Z,93.80
2019-03-30T21:06:38.342Z,94.10
2019-03-30T21:09:12.175Z,94.40
2019-03-30T21:11:45.653Z,95.10
2019-03-30T21:14:19.272Z,95.00
2019-03-30T21:16:52.797Z,95.10
2019-03-30T21:19:26.477Z,94.80
2019-03-30T21:22:00.080Z,95.00
2019-03-30T21:24:33.532Z,95.10
2019-03-30T21:27:07.197Z,95.30
2019-03-30T21:29:54.019Z,95.40
2019-03-30T21:32:16.392Z,95.90
2019-03-30T21:34:50.112Z,95.90
2019-03-30T21:37:23.623Z,95.90
2019-03-30T21:39:57.286Z,95.80
2019-03-30T21:42:30.687Z,96.00
2019-03-30T21:45:05.006Z,96.30
2019-03-30T21:47:38.571Z,96.50
2019-03-30T21:50:12.299Z,96.80
2019-03-30T21:52:45.810Z,97.00
2019-03-30T21:55:19.443Z,97.00
2019-03-30T21:57:53.054Z,97.00
2019-03-30T22:00:39.432Z,97.10
2019-03-30T22:03:13.062Z,97.40
2019-03-30T22:05:46.703Z,97.60
2019-03-30T22:08:20.118Z,97.60
2019-03-30T22:10:53.723Z,97.60
2019-03-30T22:13:27.409Z,97.80
2019-03-30T22:16:00.921Z,97.80
2019-03-30T22:18:34.411Z,97.70
2019-03-30T22:21:08.041Z,97.80
2019-03-30T22:23:41.750Z,97.70
2019-03-30T22:26:15.307Z,98.10
2019-03-30T22:28:48.923Z,98.40
2019-03-30T22:31:22.373Z,98.20
2019-03-30T22:33:55.856Z,98.40
2019-03-30T22:36:29.401Z,98.70
2019-03-30T22:39:04.678Z,98.90
2019-03-30T22:41:38.867Z,98.90
2019-03-30T22:44:12.697Z,98.80
2019-03-30T22:46:46.361Z,99.00
2019-03-30T22:49:19.719Z,99.20
2019-03-30T22:51:53.277Z,99.60
2019-03-30T22:54:26.763Z,99.70
2019-03-30T22:57:00.204Z,99.80
2019-03-30T22:59:33.756Z,99.90
2019-03-30T23:02:07.586Z,99.80
2019-03-30T23:04:41.092Z,99.90
2019-03-30T23:07:14.767Z,99.90
2019-03-30T23:09:48.219Z,99.90
2019-03-30T23:12:21.801Z,99.90
2019-03-30T23:14:57.077Z,99.90
2019-03-30T23:17:30.659Z,99.90
2019-03-30T23:20:04.478Z,99.90
2019-03-30T23:22:38.185Z,99.90
2019-03-30T23:25:11.642Z,99.90
2019-03-30T23:27:45.458Z,99.90
2019-03-30T23:30:20.950Z,99.90
2019-03-30T23:32:54.744Z,99.90
2019-03-30T23:35:28.146Z,99.90
2019-03-30T23:38:01.802Z,99.90
2019-03-30T23:40:35.193Z,99.90
2019-03-30T23:43:08.712Z,99.90
2019-03-30T23:45:42.118Z,99.80
2019-03-30T23:48:15.493Z,99.90
2019-03-30T23:50:49.279Z,99.90
2019-03-30T23:53:22.885Z,99.90
2019-03-30T23:55:56.578Z,99.90
2019-03-30T23:58:30.088Z,99.90
